Time;durP1;ratioP1;P1;durP2;ratioP2;P2;SDS_P1;SDS_P2;PMS_P1;PMS_P2;Temp;Humidity;BMP_temperature;BMP_pressure;BME280_temperature;BME280_humidity;BME280_pressure;Samples;Min_cycle;Max_cycle;Signal;HPM_P1;HPM_P2
2023/01/11 00:03:03;;;;;;;1.70;1.30;;;8.60;58.10;;;7.31;61.81;101225.44;12250815;19;20085;-86
2023/01/11 00:07:04;;;;;;;2.65;1.40;;;8.60;58.10;;;7.34;61.66;101225.34;12252928;19;20017;-87
2023/01/11 00:11:14;;;;;;;2.45;1.38;;;8.60;58.20;;;7.24;61.65;101209.22;12252970;19;20011;-86
2023/01/11 00:15:16;;;;;;;6.00;1.77;;;8.60;58.50;;;7.25;61.75;101205.72;12251915;19;20537;-86
2023/01/11 00:19:18;;;;;;;6.00;2.03;;;8.60;57.90;;;7.32;61.66;101219.38;12250478;19;20074;-86
2023/01/11 00:23:20;;;;;;;2.00;1.48;;;8.60;58.00;;;7.25;61.69;101204.88;12251806;19;20026;-86
2023/01/11 00:27:22;;;;;;;3.35;1.40;;;8.60;58.10;;;7.19;61.73;101192.94;12253587;19;20027;-86
2023/01/11 00:31:23;;;;;;;2.65;1.42;;;8.60;58.20;;;7.19;61.81;101179.13;12251595;19;20043;-86
2023/01/11 00:35:28;;;;;;;2.72;1.50;;;8.60;58.10;;;7.27;61.60;101187.50;12248946;19;20461;-86
2023/01/11 00:39:30;;;;;;;2.92;1.50;;;8.60;58.00;;;7.32;61.72;101189.03;12249324;19;20022;-86
2023/01/11 00:48:12;;;;;;;2.80;1.38;;;8.60;58.10;;;7.28;61.64;101184.84;12242260;19;20021;-86
2023/01/11 00:52:14;;;;;;;3.28;1.20;;;8.60;58.00;;;7.31;61.64;101179.53;12244626;19;20054;-86
2023/01/11 00:56:15;;;;;;;2.55;1.55;;;8.60;58.10;;;7.35;61.64;101175.09;12247919;19;20031;-86
2023/01/11 01:00:20;;;;;;;3.50;1.75;;;8.60;58.00;;;7.22;61.67;101159.06;12250571;19;20011;-86
2023/01/11 01:04:22;;;;;;;3.65;1.70;;;8.60;57.90;;;7.26;61.82;101158.09;12248320;19;20074;-86
2023/01/11 01:08:24;;;;;;;3.35;1.40;;;8.60;57.80;;;7.25;61.75;101147.72;12246365;19;20074;-86
2023/01/11 01:16:46;;;;;;;1.42;1.30;;;8.60;57.90;;;7.28;61.63;101147.63;12246782;19;20022;-86
2023/01/11 01:20:49;;;;;;;4.10;1.20;;;8.60;57.90;;;7.24;61.73;101133.06;12249812;19;20022;-86
2023/01/11 01:24:51;;;;;;;1.50;1.17;;;8.60;57.80;;;7.27;61.79;101128.59;12246974;19;20010;-86
2023/01/11 01:28:52;;;;;;;2.97;1.40;;;8.60;57.90;;;7.35;61.73;101132.69;12248151;19;20014;-86
2023/01/11 01:32:54;;;;;;;5.60;1.67;;;8.60;57.90;;;7.36;61.59;101134.38;12245285;19;20041;-86
2023/01/11 01:36:56;;;;;;;1.25;1.08;;;8.60;57.70;;;7.40;61.72;101135.94;12246994;19;20381;-86
2023/01/11 01:40:58;;;;;;;1.75;1.35;;;8.70;57.80;;;7.27;61.65;101106.97;12249004;19;20019;-86
2023/01/11 01:45:26;;;;;;;3.60;1.52;;;8.60;57.80;;;7.30;61.51;101112.91;12245022;19;20018;-86
2023/01/11 01:49:28;;;;;;;3.05;1.17;;;8.60;57.50;;;7.31;61.62;101108.53;12247547;19;20021;-86
2023/01/11 01:53:36;;;;;;;3.03;1.30;;;8.60;57.70;;;7.11;61.53;101083.28;12241804;19;20010;-86
2023/01/11 01:57:41;;;;;;;2.05;1.20;;;8.70;57.80;;;6.95;61.70;101044.03;12245600;19;20376;-86
2023/01/11 02:01:48;;;;;;;1.45;1.35;;;8.70;57.70;;;6.93;61.59;101040.63;12246652;19;20019;-86
2023/01/11 02:05:52;;;;;;;2.58;1.10;;;8.60;57.60;;;7.15;61.85;101058.88;12246127;19;20019;-86
2023/01/11 02:10:16;;;;;;;2.35;1.63;;;8.60;57.50;;;7.31;61.68;101082.56;12247944;19;20018;-86
2023/01/11 02:14:20;;;;;;;3.33;1.40;;;8.60;57.60;;;7.36;61.74;101082.41;12243889;19;20014;-87
2023/01/11 02:18:22;;;;;;;8.07;2.00;;;8.60;57.50;;;7.30;61.67;101067.91;12243639;19;20013;-86
2023/01/11 02:23:33;;;;;;;2.28;1.60;;;8.60;57.30;;;7.23;61.36;101049.06;12244414;19;20011;-86
2023/01/11 02:28:20;;;;;;;2.75;1.38;;;8.60;57.20;;;7.27;61.32;101042.88;12252387;19;20014;-86
2023/01/11 02:32:51;;;;;;;1.60;1.02;;;8.60;57.40;;;7.35;61.46;101045.19;12248599;19;20014;-86
2023/01/11 02:37:11;;;;;;;4.55;1.30;;;8.60;57.30;;;7.32;61.35;101033.16;12248733;19;20474;-86
2023/01/11 02:46:16;;;;;;;3.88;1.10;;;8.60;57.30;;;7.30;61.53;101023.75;12258008;19;20680;-86
2023/01/11 02:51:21;;;;;;;3.55;1.42;;;8.60;57.20;;;7.27;61.50;101010.88;12252264;19;20026;-86
2023/01/11 02:55:30;;;;;;;1.10;1.00;;;8.60;57.00;;;7.21;61.57;100991.16;12253662;19;20010;-86
2023/01/11 02:59:35;;;;;;;2.55;1.20;;;8.60;57.10;;;7.26;61.55;100994.44;12256250;19;20013;-86
2023/01/11 03:03:36;;;;;;;1.75;1.15;;;8.60;57.20;;;7.13;61.53;100962.03;12252712;19;20018;-86
2023/01/11 03:08:18;;;;;;;5.03;1.35;;;8.60;57.20;;;7.31;61.40;100984.69;12255709;19;20010;-86
2023/01/11 03:13:00;;;;;;;4.13;1.30;;;8.60;56.70;;;7.32;61.26;100986.41;12255235;19;20472;-86
2023/01/11 03:17:50;;;;;;;1.70;1.02;;;8.60;57.00;;;7.32;61.41;100983.81;12251676;19;20022;-86
2023/01/11 03:22:16;;;;;;;1.40;1.13;;;8.60;57.00;;;7.29;61.35;100972.66;12256258;19;20014;-86
2023/01/11 03:26:29;;;;;;;1.23;1.08;;;8.60;57.20;;;7.37;61.46;100983.66;12254580;19;20022;-86
2023/01/11 03:30:50;;;;;;;1.95;1.10;;;8.70;56.90;;;7.37;61.39;100964.59;12255291;19;20011;-86
2023/01/11 03:35:05;;;;;;;3.85;1.00;;;8.70;56.80;;;7.31;61.35;100947.50;12250639;19;20022;-86
2023/01/11 03:39:25;;;;;;;1.92;1.20;;;8.70;56.90;;;7.35;61.23;100949.09;12250790;19;20015;-86
2023/01/11 03:43:28;;;;;;;1.55;1.10;;;8.70;56.60;;;7.41;61.33;100954.03;12250405;19;20014;-86
2023/01/11 03:47:32;;;;;;;1.25;0.80;;;8.70;56.70;;;7.34;61.40;100930.94;12252643;19;20414;-86
2023/01/11 03:51:42;;;;;;;2.17;1.48;;;8.70;56.70;;;7.32;61.29;100918.03;12251582;19;20378;-87
2023/01/11 03:55:47;;;;;;;3.50;1.35;;;8.70;56.70;;;7.40;61.12;100915.97;12250493;19;20465;-86
2023/01/11 03:59:49;;;;;;;2.53;1.45;;;8.70;56.30;;;7.45;61.19;100923.56;12253008;19;20019;-86
2023/01/11 04:03:51;;;;;;;3.08;1.42;;;8.70;56.50;;;7.42;61.16;100921.94;12248452;19;20022;-86
2023/01/11 04:07:53;;;;;;;0.80;0.80;;;8.70;56.60;;;7.48;61.33;100921.72;12252580;19;20554;-86
2023/01/11 04:11:55;;;;;;;2.28;1.08;;;9.00;56.90;;;7.42;61.23;100906.34;12252370;19;20025;-86
2023/01/11 04:15:57;;;;;;;1.33;1.17;;;8.80;56.70;;;7.51;61.07;100913.81;12250065;19;20019;-86
2023/01/11 04:19:59;;;;;;;0.90;0.80;;;8.80;56.70;;;7.51;61.07;100915.56;12251448;19;20512;-86
2023/01/11 04:24:01;;;;;;;1.58;0.90;;;8.80;56.70;;;7.45;61.03;100900.19;12250289;19;20070;-86
2023/01/11 04:28:03;;;;;;;1.70;1.00;;;8.80;56.80;;;7.58;61.08;100926.53;12252930;19;20014;-86
2023/01/11 04:32:05;;;;;;;2.17;1.35;;;8.80;56.60;;;7.57;61.15;100909.28;12251970;19;20029;-86
2023/01/11 04:36:09;;;;;;;1.55;1.15;;;8.80;56.60;;;7.54;61.12;100899.84;12248157;19;20094;-86
2023/01/11 04:40:11;;;;;;;1.57;1.20;;;8.90;56.70;;;7.47;61.13;100882.78;12249252;19;20043;-86
2023/01/11 04:44:13;;;;;;;1.30;1.20;;;8.90;56.70;;;7.60;61.02;100893.56;12249338;19;20093;-86
2023/01/11 04:48:15;;;;;;;1.67;1.10;;;8.90;56.80;;;7.50;60.97;100870.53;12248394;19;20014;-86
2023/01/11 04:52:19;;;;;;;2.30;1.48;;;9.00;56.40;;;7.59;61.06;100874.53;12249921;19;20015;-86
2023/01/11 04:56:20;;;;;;;1.52;0.90;;;8.90;56.30;;;7.38;61.11;100820.81;12245323;19;20010;-86
2023/01/11 05:00:22;;;;;;;2.92;0.95;;;8.90;56.50;;;7.67;60.80;100869.00;12250381;19;20031;-87
2023/01/11 05:04:24;;;;;;;3.30;1.60;;;8.90;56.40;;;7.66;60.88;100859.50;12248722;19;20039;-86
2023/01/11 05:08:28;;;;;;;1.10;1.00;;;9.00;56.40;;;7.65;61.03;100855.25;12250075;19;20018;-86
2023/01/11 05:12:29;;;;;;;1.80;1.00;;;9.00;56.60;;;7.68;60.84;100844.72;12247188;19;20015;-86
2023/01/11 05:16:31;;;;;;;1.88;1.40;;;9.00;56.60;;;7.69;60.90;100841.19;12246588;19;20472;-86
2023/01/11 05:20:32;;;;;;;3.10;1.15;;;9.00;56.60;;;7.72;61.09;100844.53;12250475;19;20031;-86
2023/01/11 05:24:35;;;;;;;3.10;1.40;;;9.00;56.50;;;7.75;60.99;100847.00;12247184;19;20014;-86
2023/01/11 05:28:37;;;;;;;2.30;1.17;;;9.00;56.70;;;7.64;60.98;100822.34;12248793;19;20026;-86
2023/01/11 05:32:39;;;;;;;3.03;1.13;;;9.10;56.50;;;7.75;61.00;100826.19;12246548;19;20025;-86
2023/01/11 05:36:41;;;;;;;2.00;1.13;;;9.10;56.40;;;7.80;61.06;100813.00;12247130;19;20095;-86
2023/01/11 05:40:43;;;;;;;1.98;1.00;;;9.10;56.60;;;7.81;60.81;100812.09;12247926;19;20477;-86
2023/01/11 05:49:07;;;;;;;2.28;1.08;;;9.10;56.50;;;7.84;60.86;100813.72;12247473;19;20010;-86
2023/01/11 05:53:09;;;;;;;1.77;1.08;;;9.10;56.70;;;7.83;61.02;100802.50;12247722;19;20011;-86
2023/01/11 05:57:11;;;;;;;2.00;1.40;;;9.10;56.60;;;7.84;60.96;100809.38;12246758;19;20477;-86
2023/01/11 06:01:12;;;;;;;1.80;1.17;;;9.10;56.50;;;7.85;60.73;100805.84;12262612;19;20782;-87
2023/01/11 06:05:14;;;;;;;1.45;1.05;;;9.20;56.60;;;7.85;60.72;100811.03;12256611;19;20010;-86
2023/01/11 06:09:16;;;;;;;0.90;0.90;;;9.20;56.60;;;7.86;60.70;100802.34;12261583;19;20631;-86
2023/01/11 06:13:27;;;;;;;1.10;1.00;;;9.20;56.60;;;7.81;60.83;100793.91;12258833;19;20022;-86
2023/01/11 06:17:29;;;;;;;1.42;1.13;;;9.20;56.70;;;7.93;60.96;100808.13;12261821;19;20019;-87
2023/01/11 06:21:30;;;;;;;1.58;1.30;;;9.20;56.80;;;7.87;60.76;100787.59;12259289;19;20010;-86
2023/01/11 06:25:36;;;;;;;3.10;1.02;;;9.20;56.70;;;7.94;60.84;100791.63;12256820;19;21041;-86
2023/01/11 06:29:37;;;;;;;;;;;9.20;56.70;;;7.79;60.63;100774.91;12262815;19;20422;-87
2023/01/11 06:33:39;;;;;;;0.85;0.80;;;9.20;56.90;;;7.89;60.81;100784.00;12263017;19;19918;-86
2023/01/11 06:37:40;;;;;;;3.17;1.20;;;9.20;56.80;;;7.90;60.67;100782.25;12265106;19;20022;-86
2023/01/11 06:41:42;;;;;;;1.88;1.20;;;9.20;56.70;;;7.95;60.91;100794.16;12264512;19;20019;-86
2023/01/11 06:45:43;;;;;;;2.65;0.90;;;9.30;56.80;;;7.93;60.65;100782.97;12264638;19;20030;-87
2023/01/11 06:49:45;;;;;;;2.85;1.33;;;9.30;56.80;;;7.98;60.90;100793.16;12264987;19;20421;-86
2023/01/11 06:53:47;;;;;;;5.15;1.15;;;9.30;56.90;;;7.95;60.80;100775.94;12260247;19;20011;-87
2023/01/11 06:57:52;;;;;;;2.95;1.40;;;9.30;56.80;;;7.74;60.87;100746.50;12260362;19;20016;-86
2023/01/11 07:01:54;;;;;;;2.83;1.52;;;9.30;56.90;;;7.54;60.84;100704.97;12264050;19;20022;-87
2023/01/11 07:05:56;;;;;;;2.78;1.75;;;9.30;56.80;;;7.82;60.71;100759.19;12263578;19;20015;-87
2023/01/11 07:09:58;;;;;;;2.00;1.30;;;9.30;56.50;;;7.91;60.73;100781.34;12261712;19;20053;-86
2023/01/11 07:14:00;;;;;;;1.83;1.30;;;9.30;56.80;;;8.03;60.88;100808.59;12258421;19;20039;-88
2023/01/11 07:18:02;;;;;;;3.13;1.48;;;9.30;56.70;;;8.02;60.71;100812.94;12263851;19;20789;-88
2023/01/11 07:22:04;;;;;;;6.10;1.38;;;9.30;56.70;;;8.06;60.71;100808.44;12261635;19;20489;-88
2023/01/11 07:26:05;;;;;;;1.23;1.13;;;9.30;56.70;;;7.48;60.69;100711.28;12262336;19;20018;-88
2023/01/11 07:30:08;;;;;;;2.22;1.10;;;9.30;56.70;;;7.95;60.74;100785.50;12264660;19;20018;-90
2023/01/11 07:34:10;;;;;;;1.80;1.40;;;9.30;56.70;;;7.90;60.72;100783.09;12259865;19;20007;-88
2023/01/11 07:38:12;;;;;;;1.38;1.20;;;9.30;56.70;;;7.97;60.73;100792.34;12263075;19;20022;-88
2023/01/11 07:46:34;;;;;;;1.33;1.23;;;9.40;56.90;;;8.06;60.63;100806.69;12261113;19;20010;-88
2023/01/11 07:50:39;;;;;;;1.45;1.35;;;9.40;56.90;;;8.01;60.52;100794.78;12259627;19;20014;-88
2023/01/11 07:54:41;;;;;;;1.48;1.27;;;9.40;56.90;;;8.08;60.68;100810.06;12256649;19;20030;-88
2023/01/11 07:58:43;;;;;;;2.40;1.35;;;9.40;56.80;;;8.13;60.74;100805.50;12256659;19;20425;-88
2023/01/11 08:02:48;;;;;;;2.72;1.55;;;9.40;56.90;;;8.09;60.71;100787.50;12254590;19;20018;-88
2023/01/11 08:06:49;;;;;;;1.42;1.10;;;9.40;56.90;;;8.08;60.75;100781.47;12258320;19;20021;-87
2023/01/11 08:14:38;;;;;;;2.42;1.25;;;9.40;57.10;;;8.22;60.83;100804.25;12255540;19;20010;-87
2023/01/11 08:15:13;;;;;;;1.30;1.20;;;9.40;56.90;;;8.20;60.61;100798.28;12253396;19;20061;-89
2023/01/11 08:19:15;;;;;;;2.88;1.10;;;9.60;57.10;;;8.15;60.95;100782.84;12259589;19;20054;-88
2023/01/11 08:23:16;;;;;;;2.22;1.52;;;9.50;57.00;;;8.18;60.68;100784.47;12252886;19;20026;-88
2023/01/11 08:27:18;;;;;;;3.42;1.20;;;9.60;57.20;;;8.26;60.86;100779.78;12259933;19;20013;-88
2023/01/11 08:31:21;;;;;;;1.52;1.17;;;9.60;57.30;;;8.32;60.80;100789.94;12257759;19;20018;-88
2023/01/11 08:35:24;;;;;;;2.08;1.05;;;9.60;57.30;;;8.15;60.83;100751.66;12251803;19;20015;-88
2023/01/11 08:39:28;;;;;;;1.45;1.10;;;9.70;57.40;;;8.29;60.73;100771.88;12256199;19;20022;-87
2023/01/11 08:43:30;;;;;;;2.47;1.30;;;9.70;57.50;;;7.98;60.74;100705.59;12253379;19;20010;-87
2023/01/11 08:47:32;;;;;;;1.55;1.27;;;9.70;57.40;;;8.08;60.74;100718.22;12256466;19;20015;-86
2023/01/11 08:51:33;;;;;;;1.23;1.10;;;9.70;57.40;;;8.11;60.66;100712.84;12255328;19;20025;-87
2023/01/11 08:55:35;;;;;;;1.30;1.20;;;9.80;57.50;;;8.40;60.66;100761.00;12245347;19;20024;-87
2023/01/11 08:59:40;;;;;;;3.90;1.10;;;9.80;57.60;;;8.43;60.83;100754.81;12252483;19;20043;-86
2023/01/11 09:03:45;;;;;;;2.50;1.25;;;9.80;57.60;;;8.40;60.82;100751.44;12244194;19;20018;-86
2023/01/11 09:07:47;;;;;;;2.28;1.10;;;9.90;57.70;;;8.31;60.74;100709.34;12245402;19;20010;-86
2023/01/11 09:11:59;;;;;;;2.10;1.42;;;9.90;57.80;;;8.64;60.84;100759.00;12249269;19;20040;-86
2023/01/11 09:16:01;;;;;;;3.97;1.25;;;10.00;57.80;;;8.35;60.91;100688.31;12249014;19;20015;-86
2023/01/11 09:20:03;;;;;;;1.63;1.35;;;10.00;57.80;;;8.58;60.94;100715.88;12251969;19;20456;-86
2023/01/11 09:24:05;;;;;;;3.65;1.63;;;10.10;57.90;;;8.82;60.97;100741.69;12249049;19;20040;-87
2023/01/11 09:28:07;;;;;;;4.63;1.65;;;10.10;57.90;;;8.89;60.75;100743.09;12250073;19;20018;-87
2023/01/11 09:32:09;;;;;;;2.55;1.52;;;10.20;58.00;;;8.85;60.79;100723.31;12249509;19;20007;-86
2023/01/11 09:36:10;;;;;;;2.90;1.40;;;10.20;58.10;;;8.93;60.83;100729.00;12248634;19;20011;-87
2023/01/11 09:40:23;;;;;;;3.60;1.38;;;10.30;58.50;;;9.06;60.85;100740.50;12248111;19;20014;-86
2023/01/11 09:44:26;;;;;;;2.20;1.40;;;10.40;58.20;;;8.82;60.86;100681.78;12243550;19;20022;-86
2023/01/11 09:48:42;;;;;;;1.15;1.05;;;10.40;58.40;;;9.21;61.00;100722.44;12246771;19;20021;-86
2023/01/11 09:52:51;;;;;;;1.70;1.10;;;10.50;58.40;;;9.06;61.04;100682.34;12241738;19;20010;-86
2023/01/11 09:57:46;;;;;;;1.05;0.98;;;10.50;58.80;;;9.35;60.96;100719.16;12243877;19;20035;-86
2023/01/11 10:02:10;;;;;;;0.70;0.70;;;10.60;58.50;;;9.35;61.07;100713.94;12245857;19;20018;-87
2023/01/11 10:06:41;;;;;;;1.67;1.10;;;10.70;58.60;;;9.40;60.88;100704.13;12251462;19;20015;-87
2023/01/11 10:10:56;;;;;;;0.70;0.70;;;10.80;58.60;;;9.57;60.97;100724.13;12247921;19;20019;-87
2023/01/11 10:15:31;;;;;;;1.58;0.82;;;10.80;58.50;;;9.60;60.88;100714.38;12247916;19;20032;-86
2023/01/11 10:19:46;;;;;;;1.10;0.90;;;10.90;58.60;;;9.65;61.10;100704.53;12248371;19;20011;-87
2023/01/11 10:23:56;;;;;;;;;;;11.00;58.60;;;9.64;60.85;100688.97;12247305;19;20052;-87
2023/01/11 10:28:06;;;;;;;2.53;0.77;;;11.00;58.60;;;9.79;61.05;100703.00;12249783;19;20470;-87
2023/01/11 10:32:33;;;;;;;2.60;0.80;;;11.10;58.60;;;9.74;61.00;100677.97;12248731;19;20111;-87
2023/01/11 10:41:47;;;;;;;0.80;0.80;;;11.20;58.60;;;9.96;61.09;100684.66;12248998;19;20011;-87
2023/01/11 10:46:15;;;;;;;0.70;0.70;;;11.20;58.60;;;9.98;61.14;100678.44;12251969;19;20371;-86
2023/01/11 10:50:38;;;;;;;0.98;0.90;;;11.30;58.70;;;10.06;61.30;100683.25;12257040;19;20077;-86
2023/01/11 10:54:44;;;;;;;0.70;0.70;;;11.30;58.80;;;10.05;61.21;100671.16;12250403;19;20062;-85
2023/01/11 10:59:35;;;;;;;0.80;0.80;;;11.40;58.80;;;10.11;61.08;100681.25;12256121;19;20026;-85
2023/01/11 11:20:47;;;;;;;0.60;0.60;;;11.50;59.50;;;9.97;61.08;100618.56;12247364;19;20259;-87
2023/01/11 11:36:47;;;;;;;0.85;0.70;;;11.50;60.00;;;10.17;61.39;100633.94;12250082;19;20010;-85
2023/01/11 11:41:32;;;;;;;0.82;0.82;;;11.50;60.20;;;9.82;61.26;100572.44;12256125;19;20523;-85
2023/01/11 11:45:33;;;;;;;0.70;0.70;;;11.40;60.20;;;10.13;61.32;100613.34;12253597;19;20011;-86
2023/01/11 11:49:37;;;;;;;0.57;0.57;;;11.50;60.70;;;10.09;61.43;100612.66;12259951;19;20014;-85
2023/01/11 11:53:54;;;;;;;0.90;0.90;;;11.50;60.90;;;9.69;61.32;100539.22;12255270;19;20017;-85
2023/01/11 11:58:03;;;;;;;0.63;0.63;;;11.40;61.20;;;9.84;61.47;100560.16;12257184;19;20019;-86
2023/01/11 12:02:32;;;;;;;0.70;0.70;;;11.50;61.20;;;10.25;61.55;100627.47;12256907;19;20006;-85
2023/01/11 12:06:33;;;;;;;1.20;1.10;;;11.40;61.30;;;9.92;61.60;100557.97;12259546;19;20070;-85
2023/01/11 12:10:36;;;;;;;1.15;1.05;;;11.50;61.90;;;9.89;61.61;100539.88;12254921;19;20014;-85
2023/01/11 12:14:38;;;;;;;1.20;1.10;;;11.50;61.80;;;9.92;61.60;100531.88;12248785;19;20046;-85
2023/01/11 12:18:42;;;;;;;1.63;1.23;;;11.50;61.90;;;10.23;61.51;100584.94;12251620;19;20018;-85
2023/01/11 12:22:44;;;;;;;2.03;1.07;;;11.50;62.30;;;9.95;61.52;100529.94;12244875;19;20042;-85
2023/01/11 12:27:21;;;;;;;4.13;2.55;;;11.50;62.00;;;10.30;61.76;100578.50;12253070;19;20030;-87
2023/01/11 12:32:04;;;;;;;3.13;2.30;;;11.50;62.30;;;9.93;61.61;100523.13;12253812;19;20026;-87
2023/01/11 12:36:51;;;;;;;7.35;4.28;;;11.50;62.20;;;10.25;61.76;100573.50;12254547;19;20074;-86
2023/01/11 12:41:50;;;;;;;12.85;6.60;;;11.60;62.60;;;10.41;61.86;100581.34;12256616;19;20021;-87
2023/01/11 12:46:50;;;;;;;11.93;6.95;;;11.60;62.50;;;10.40;61.89;100585.72;12256866;19;20015;-86
2023/01/11 12:51:23;;;;;;;8.23;5.13;;;11.60;62.50;;;10.28;61.91;100560.31;12255781;19;20011;-86
2023/01/11 12:55:33;;;;;;;4.63;3.13;;;11.60;62.80;;;10.46;61.80;100571.47;12253285;19;20035;-87
2023/01/11 13:00:05;;;;;;;2.85;1.80;;;11.60;62.80;;;10.45;61.98;100569.81;12256909;19;20032;-86
2023/01/11 13:04:29;;;;;;;2.17;1.30;;;11.60;62.80;;;10.44;61.79;100562.88;12252815;19;20047;-87
2023/01/11 13:08:58;;;;;;;1.00;1.00;;;11.70;63.00;;;10.49;62.09;100560.03;12252943;19;20015;-86
2023/01/11 13:13:10;;;;;;;1.45;1.20;;;11.70;63.00;;;10.47;61.88;100549.66;12252030;19;20014;-86
2023/01/11 13:17:11;;;;;;;1.00;0.93;;;11.70;63.10;;;10.55;62.00;100555.28;12251272;19;20018;-86
2023/01/11 13:21:52;;;;;;;1.42;1.17;;;11.70;63.20;;;10.49;61.92;100553.03;12256443;19;20021;-87
2023/01/11 13:25:56;;;;;;;1.55;1.40;;;11.70;64.00;;;10.56;62.18;100551.75;12254185;19;20444;-87
2023/01/11 13:30:01;;;;;;;1.33;0.90;;;11.70;63.50;;;10.48;62.19;100533.09;12255162;19;20014;-86
2023/01/11 13:34:39;;;;;;;1.58;1.00;;;11.70;63.20;;;10.61;62.13;100556.69;12251131;19;20364;-86
2023/01/11 13:38:47;;;;;;;0.80;0.80;;;11.80;63.50;;;10.58;62.07;100546.41;12255496;19;20017;-86
2023/01/11 13:43:34;;;;;;;1.35;1.25;;;11.80;63.40;;;10.61;62.10;100557.56;12252368;19;20078;-88
2023/01/11 13:47:44;;;;;;;1.30;1.20;;;11.80;63.80;;;10.59;62.31;100548.97;12252190;19;20383;-88
2023/01/11 13:52:17;;;;;;;1.77;1.52;;;11.80;63.70;;;10.63;62.25;100560.88;12252852;19;20031;-87
2023/01/11 13:56:35;;;;;;;2.05;1.30;;;11.80;63.70;;;10.63;62.13;100554.84;12249618;19;20345;-86
2023/01/11 14:00:50;;;;;;;1.02;1.02;;;11.80;63.80;;;10.63;62.30;100550.44;12253418;19;20002;-86
2023/01/11 14:05:17;;;;;;;1.20;1.10;;;11.80;64.10;;;10.65;62.19;100555.59;12248994;19;20034;-87
2023/01/11 14:09:37;;;;;;;;;;;11.80;63.80;;;10.65;62.20;100562.59;12254360;19;20234;-86
2023/01/11 14:18:12;;;;;;;2.88;0.90;;;11.80;63.40;;;10.63;62.24;100554.84;12252830;19;20002;-86
2023/01/11 14:22:30;;;;;;;1.60;0.98;;;11.80;63.60;;;10.72;62.27;100571.72;12259478;19;20007;-87
2023/01/11 14:27:10;;;;;;;1.15;1.05;;;11.90;63.90;;;10.69;62.25;100569.31;12265736;19;20038;-87
2023/01/11 14:31:53;;;;;;;2.05;1.40;;;11.90;64.00;;;10.71;62.35;100562.22;12268026;19;20010;-86
2023/01/11 14:36:28;;;;;;;1.02;1.00;;;11.90;63.90;;;10.79;62.43;100567.84;12260739;19;20026;-86
2023/01/11 14:41:10;;;;;;;2.25;1.23;;;11.90;63.90;;;10.70;62.27;100571.00;12264362;19;20053;-86
2023/01/11 14:45:55;;;;;;;0.90;0.90;;;11.90;64.20;;;10.81;62.54;100573.81;12258645;19;20028;-86
2023/01/11 14:50:13;;;;;;;1.03;0.90;;;12.00;64.10;;;10.83;62.23;100582.41;12264230;19;20014;-85
2023/01/11 14:54:33;;;;;;;0.80;0.80;;;12.00;64.10;;;10.78;62.60;100574.00;12260381;19;20480;-86
2023/01/11 14:58:35;;;;;;;0.70;0.70;;;12.00;64.00;;;10.86;62.30;100577.00;12262028;19;20528;-86
2023/01/11 15:02:36;;;;;;;1.08;0.85;;;12.00;64.00;;;10.81;62.66;100558.16;12261232;19;20010;-86
2023/01/11 15:06:53;;;;;;;0.80;0.80;;;12.00;64.00;;;10.82;62.51;100559.81;12262039;19;20018;-86
2023/01/11 15:11:23;;;;;;;0.70;0.70;;;12.10;64.40;;;10.94;62.65;100572.16;12260895;19;20023;-86
2023/01/11 15:19:50;;;;;;;1.13;1.00;;;12.10;64.20;;;10.97;62.54;100577.22;12260048;19;20015;-85
2023/01/11 15:23:56;;;;;;;1.30;1.02;;;12.10;64.20;;;10.93;62.38;100570.47;12260426;19;20027;-85
2023/01/11 15:28:23;;;;;;;0.70;0.70;;;12.20;64.10;;;10.92;62.65;100581.88;12262222;19;20010;-86
2023/01/11 15:32:30;;;;;;;1.05;0.70;;;12.10;64.30;;;11.02;62.57;100583.00;12258290;19;20007;-86
2023/01/11 15:37:01;;;;;;;0.70;0.70;;;12.20;64.30;;;11.04;62.70;100595.97;12257741;19;21434;-86
2023/01/11 15:51:00;;;;;;;1.00;1.00;;;12.20;64.70;;;10.96;62.61;100587.75;12260989;19;20022;-86
2023/01/11 15:55:47;;;;;;;1.17;0.85;;;12.20;64.60;;;11.03;62.78;100600.34;12255835;19;20014;-86
2023/01/11 16:00:16;;;;;;;0.70;0.70;;;12.30;64.70;;;11.12;62.58;100611.19;12258078;19;20620;-86
2023/01/11 16:04:41;;;;;;;0.80;0.80;;;12.20;64.40;;;11.13;62.63;100610.28;12252560;19;20018;-86
2023/01/11 16:09:14;;;;;;;0.95;0.95;;;12.20;64.60;;;10.99;62.61;100598.88;12260257;19;20048;-86
2023/01/11 16:13:46;;;;;;;2.13;0.80;;;12.30;64.70;;;11.16;62.74;100626.63;12253870;19;20010;-86
2023/01/11 16:17:49;;;;;;;0.98;0.98;;;12.30;64.70;;;11.15;62.90;100614.50;12246083;19;20019;-86
2023/01/11 16:21:57;;;;;;;0.90;0.90;;;12.30;64.70;;;11.12;62.75;100624.25;12255231;19;20006;-85
2023/01/11 16:26:00;;;;;;;1.55;1.45;;;12.30;64.70;;;11.17;62.89;100633.50;12255704;19;20022;-86
2023/01/11 16:30:02;;;;;;;0.88;0.88;;;12.30;64.80;;;11.14;62.73;100635.47;12257429;19;20022;-86
2023/01/11 16:34:07;;;;;;;1.20;1.10;;;12.40;64.80;;;10.96;62.88;100604.25;12253039;19;20018;-86
2023/01/11 16:38:20;;;;;;;1.00;1.00;;;12.40;65.00;;;10.92;62.77;100601.94;12258185;19;20013;-86
2023/01/11 16:42:26;;;;;;;1.17;1.08;;;12.40;65.00;;;10.98;62.92;100623.31;12248805;19;20047;-86
2023/01/11 16:46:45;;;;;;;;;;;12.40;64.90;;;11.27;62.88;100667.81;12255589;19;20015;-86
2023/01/11 16:51:06;;;;;;;1.42;1.10;;;12.40;64.60;;;11.24;62.88;100668.81;12256139;19;19919;-85
2023/01/11 16:55:38;;;;;;;0.82;0.82;;;12.40;64.70;;;11.24;63.05;100679.28;12247366;19;20500;-85
2023/01/11 16:59:40;;;;;;;1.13;0.95;;;12.50;65.10;;;11.23;62.86;100675.00;12249150;19;20028;-85
2023/01/11 17:03:53;;;;;;;1.15;1.08;;;12.50;65.00;;;11.33;63.09;100680.50;12249400;19;20010;-86
2023/01/11 17:07:55;;;;;;;1.30;1.23;;;12.50;65.90;;;11.34;63.03;100689.19;12253323;19;20006;-86
2023/01/11 17:11:57;;;;;;;0.90;0.90;;;12.50;65.00;;;11.34;62.92;100687.44;12257745;19;20066;-86
2023/01/11 17:16:08;;;;;;;1.75;1.65;;;12.50;65.20;;;11.37;62.96;100695.09;12251545;19;20019;-86
2023/01/11 17:20:26;;;;;;;1.50;1.40;;;12.50;65.20;;;11.37;63.00;100702.94;12250061;19;20018;-86
2023/01/11 17:24:33;;;;;;;1.45;1.35;;;12.50;65.20;;;11.27;63.08;100689.56;12250235;19;20021;-86
2023/01/11 17:28:34;;;;;;;1.85;1.70;;;12.50;65.20;;;11.29;62.91;100684.25;12252926;19;20015;-86
2023/01/11 17:32:41;;;;;;;1.65;1.55;;;12.60;65.20;;;11.35;63.21;100699.56;12250325;19;20039;-86
2023/01/11 17:36:45;;;;;;;1.50;1.40;;;12.70;65.40;;;11.18;63.16;100665.72;12249769;19;20018;-86
2023/01/11 17:40:46;;;;;;;1.58;1.45;;;12.50;65.20;;;11.33;63.13;100685.72;12253149;19;20504;-86
2023/01/11 17:49:32;;;;;;;1.20;1.15;;;12.60;65.30;;;11.45;63.34;100728.59;12248611;19;20476;-86
2023/01/11 17:53:36;;;;;;;1.20;1.10;;;12.50;65.30;;;11.44;63.26;100719.94;12247183;19;20048;-86
2023/01/11 17:57:37;;;;;;;1.80;1.52;;;12.60;65.20;;;11.45;63.16;100711.16;12247239;19;20015;-86
2023/01/11 18:01:58;;;;;;;1.50;1.40;;;12.60;65.20;;;11.43;63.09;100717.41;12252499;19;20017;-86
2023/01/11 18:06:12;;;;;;;1.70;1.60;;;12.60;65.30;;;11.52;63.09;100743.84;12248600;19;20018;-87
2023/01/11 18:10:32;;;;;;;2.63;2.40;;;12.60;65.20;;;11.54;63.30;100750.78;12252118;19;20027;-86
2023/01/11 18:15:07;;;;;;;2.92;1.85;;;12.70;65.40;;;11.53;63.06;100760.41;12249044;19;20476;-86
2023/01/11 18:19:34;;;;;;;2.13;1.92;;;12.70;65.40;;;11.46;63.20;100759.91;12249896;19;20018;-86
2023/01/11 18:23:36;;;;;;;2.13;1.92;;;12.70;65.30;;;11.55;63.14;100774.22;12244806;19;20042;-87
2023/01/11 18:27:38;;;;;;;1.67;1.45;;;12.70;65.20;;;11.58;63.16;100771.41;12249188;19;20018;-87
2023/01/11 18:31:40;;;;;;;1.70;1.60;;;12.70;65.20;;;11.58;63.17;100774.03;12247873;19;20039;-86
2023/01/11 18:35:45;;;;;;;1.60;1.50;;;12.70;65.80;;;11.56;63.22;100780.28;12244288;19;20014;-86
2023/01/11 18:39:50;;;;;;;2.45;1.63;;;12.70;65.00;;;11.48;63.37;100763.28;12245825;19;20014;-86
2023/01/11 18:43:53;;;;;;;2.27;1.37;;;12.70;65.00;;;11.56;63.42;100786.38;12246481;19;20011;-86
2023/01/11 18:47:54;;;;;;;2.58;2.08;;;12.70;65.00;;;11.32;63.24;100741.56;12247629;19;20480;-86
2023/01/11 18:51:56;;;;;;;2.17;1.98;;;12.70;64.90;;;11.18;63.26;100729.31;12246035;19;21463;-86